Time;durP1;ratioP1;P1;durP2;ratioP2;P2;SDS_P1;SDS_P2;PMS_P1;PMS_P2;Temp;Humidity;BMP_temperature;BMP_pressure;BME280_temperature;BME280_humidity;BME280_pressure;Samples;Min_cycle;Max_cycle;Signal;HPM_P1;HPM_P2
2023/10/05 00:01:13;;;;;;;28.37;10.03;;;;;;;-144.30;60.76;85446.13;5090207;28;20226;-58
2023/10/05 00:03:44;;;;;;;21.13;9.27;;;;;;;-144.30;61.44;85305.00;5089671;28;20221;-58
2023/10/05 00:06:14;;;;;;;21.27;10.37;;;;;;;-144.30;61.36;85316.91;5090175;28;20738;-59
2023/10/05 00:08:44;;;;;;;15.60;9.00;;;;;;;-144.30;61.68;85324.88;5090095;28;20241;-59
2023/10/05 00:11:22;;;;;;;19.80;9.93;;;;;;;-144.30;61.64;85308.97;5090030;28;20257;-58
2023/10/05 00:13:49;;;;;;;16.17;9.70;;;;;;;-144.30;61.59;85314.94;5089969;28;20260;-59
2023/10/05 00:16:20;;;;;;;21.57;9.87;;;;;;;-144.30;61.33;85324.88;5090003;28;20593;-59
2023/10/05 00:18:49;;;;;;;17.30;9.13;;;;;;;-144.30;61.67;85326.84;5090057;28;20191;-59
2023/10/05 00:21:18;;;;;;;19.87;9.27;;;;;;;-144.30;61.13;85299.03;5089939;28;20195;-58
2023/10/05 00:23:50;;;;;;;13.50;9.80;;;;;;;-144.30;60.95;85316.91;5089903;28;20206;-58
2023/10/05 00:26:20;;;;;;;18.20;9.77;;;;;;;-144.30;61.27;85330.84;5089680;28;20724;-58
2023/10/05 00:29:00;;;;;;;19.93;8.80;;;;;;;-144.30;60.92;85285.09;5089560;28;20290;-59
2023/10/05 00:31:27;;;;;;;19.43;8.97;;;;;;;-144.30;60.74;85293.06;5089577;28;20202;-59
2023/10/05 00:33:56;;;;;;;15.50;9.17;;;;;;;-144.30;60.51;85310.94;5089893;28;20728;-58
2023/10/05 00:36:24;;;;;;;17.03;9.17;;;;;;;-144.30;61.23;85322.88;5089757;28;20243;-58
2023/10/05 00:38:52;;;;;;;28.60;9.07;;;;;;;-144.30;61.36;85310.94;5089591;28;20199;-58
2023/10/05 00:41:20;;;;;;;12.97;8.10;;;;;;;-144.30;60.86;85332.81;5089736;28;20286;-58
2023/10/05 00:43:49;;;;;;;17.40;8.77;;;;;;;-144.30;61.23;85356.69;5090012;28;20199;-58
2023/10/05 00:46:15;;;;;;;15.53;8.87;;;;;;;-144.30;62.00;85324.88;5089451;28;20192;-58
2023/10/05 00:48:56;;;;;;;16.53;8.97;;;;;;;-144.30;62.56;85348.72;5089532;28;20195;-58
2023/10/05 00:51:30;;;;;;;16.93;8.53;;;;;;;-144.30;63.33;85352.69;5089824;28;20195;-59
2023/10/05 00:54:03;;;;;;;18.00;9.40;;;;;;;-144.30;63.56;85344.75;5089819;28;20696;-59
2023/10/05 00:56:35;;;;;;;12.37;8.70;;;;;;;-144.30;63.28;85305.00;5089749;28;20195;-59
2023/10/05 00:59:07;;;;;;;18.93;9.67;;;;;;;-144.30;63.41;85340.78;5089679;28;20227;-59
2023/10/05 01:01:51;;;;;;;16.40;9.23;;;;;;;-144.30;63.99;85352.69;5089512;28;20253;-59
2023/10/05 01:04:23;;;;;;;17.17;9.07;;;;;;;-144.30;63.19;85384.50;5089601;28;20210;-59
2023/10/05 01:06:56;;;;;;;16.93;8.97;;;;;;;-144.30;63.42;85390.47;5089449;28;20223;-59
2023/10/05 01:12:22;;;;;;;15.70;9.40;;;;;;;-144.30;63.58;85388.47;5013889;28;20202;-57
2023/10/05 01:14:52;;;;;;;14.40;9.30;;;;;;;-144.30;63.89;85382.53;5089815;28;20195;-57
2023/10/05 01:17:21;;;;;;;17.50;9.17;;;;;;;-144.30;64.03;85384.50;5093431;28;20720;-57
2023/10/05 01:19:53;;;;;;;13.63;9.40;;;;;;;-144.30;64.29;85372.56;5093235;28;20662;-57
2023/10/05 01:22:21;;;;;;;16.53;8.93;;;;;;;-144.30;64.77;85370.59;5093057;28;20221;-57
2023/10/05 01:24:51;;;;;;;16.37;9.23;;;;;;;-144.30;65.08;85428.25;5093659;28;20721;-58
2023/10/05 01:27:18;;;;;;;17.83;9.30;;;;;;;-144.30;65.20;85408.34;5093023;28;20720;-58
2023/10/05 01:29:45;;;;;;;14.17;8.77;;;;;;;-144.30;65.11;85412.34;5092949;28;20290;-58
2023/10/05 01:32:15;;;;;;;16.20;9.23;;;;;;;-144.30;64.64;85388.47;5093142;28;20695;-58
2023/10/05 01:34:43;;;;;;;15.37;8.87;;;;;;;-144.30;64.00;85400.41;5093012;28;20659;-58
2023/10/05 01:37:10;;;;;;;14.07;9.00;;;;;;;-144.30;63.95;85400.41;5092821;28;20195;-57
2023/10/05 01:39:43;;;;;;;15.83;8.53;;;;;;;-144.30;63.89;85430.22;5093051;28;20199;-58
2023/10/05 01:42:12;;;;;;;18.83;8.97;;;;;;;-144.30;64.43;85456.06;5093214;28;20279;-58
2023/10/05 01:44:40;;;;;;;16.80;9.53;;;;;;;-144.30;64.33;85448.13;5092876;28;20195;-59
2023/10/05 01:47:08;;;;;;;16.23;8.80;;;;;;;-144.30;64.44;85406.38;5092871;28;20777;-59
2023/10/05 01:49:35;;;;;;;16.83;9.23;;;;;;;-144.30;64.28;85440.16;5092615;28;20217;-59
2023/10/05 01:52:03;;;;;;;16.00;8.83;;;;;;;-144.30;64.44;85434.22;5092632;28;20203;-59
2023/10/05 01:54:32;;;;;;;18.47;9.40;;;;;;;-144.30;64.45;85436.19;5092673;28;20245;-59
2023/10/05 01:57:01;;;;;;;13.97;8.30;;;;;;;-144.30;64.91;85388.47;5092447;28;20231;-58
2023/10/05 01:59:33;;;;;;;15.73;9.47;;;;;;;-144.30;65.95;85412.34;5092600;28;20391;-58
2023/10/05 02:02:01;;;;;;;15.60;9.33;;;;;;;-144.30;65.98;85432.22;5092418;28;20257;-58
2023/10/05 02:04:29;;;;;;;14.70;9.90;;;;;;;-144.30;67.26;85448.13;5092535;28;20202;-59
2023/10/05 02:06:56;;;;;;;17.23;9.50;;;;;;;-144.30;67.95;85440.16;5092222;28;20280;-59
2023/10/05 02:09:24;;;;;;;15.90;8.73;;;;;;;-144.30;68.50;85436.19;5092394;28;20199;-59
2023/10/05 02:11:52;;;;;;;19.10;10.33;;;;;;;-144.30;68.93;85404.38;5092307;28;20234;-59
2023/10/05 02:14:21;;;;;;;15.93;9.37;;;;;;;-144.30;69.23;85473.97;5092363;28;20191;-58
2023/10/05 02:16:51;;;;;;;19.00;10.30;;;;;;;-144.30;69.58;85444.16;5092165;28;20200;-58
2023/10/05 02:19:19;;;;;;;20.80;10.00;;;;;;;-144.30;70.01;85479.94;5092458;28;20278;-58
2023/10/05 02:21:45;;;;;;;24.93;11.40;;;;;;;-144.30;70.33;85481.91;5092192;28;20199;-60
2023/10/05 02:24:16;;;;;;;18.27;9.63;;;;;;;-144.30;70.26;85456.06;5092322;28;20289;-58
2023/10/05 02:26:55;;;;;;;20.50;11.17;;;;;;;-144.30;69.73;85428.25;5091396;28;20230;-58
2023/10/05 02:29:23;;;;;;;17.03;10.43;;;;;;;-144.30;69.92;85452.09;5092248;28;20634;-58
2023/10/05 02:32:02;;;;;;;14.43;10.50;;;;;;;-144.30;70.12;85468.00;5092221;28;20223;-59
2023/10/05 02:34:33;;;;;;;22.87;9.43;;;;;;;-144.30;69.58;85458.06;5091940;28;20201;-59
2023/10/05 02:37:00;;;;;;;18.97;10.07;;;;;;;-144.30;69.05;85495.84;5091988;28;20199;-58
2023/10/05 02:39:32;;;;;;;24.83;10.27;;;;;;;-144.30;69.36;85471.97;5091835;28;20260;-58
2023/10/05 02:42:00;;;;;;;21.20;10.60;;;;;;;-144.30;69.17;85475.94;5091911;28;20672;-59
2023/10/05 02:44:30;;;;;;;21.63;10.40;;;;;;;-144.30;68.13;85462.03;5091779;28;20244;-58
2023/10/05 02:46:59;;;;;;;20.87;10.63;;;;;;;-144.30;67.72;85471.97;5091620;28;20603;-58
2023/10/05 02:49:26;;;;;;;22.73;10.37;;;;;;;-144.30;67.77;85324.88;5091601;28;20239;-59
2023/10/05 02:51:54;;;;;;;20.43;10.40;;;;;;;-144.30;67.34;85481.91;5091447;28;20195;-58
2023/10/05 02:54:22;;;;;;;22.17;10.20;;;;;;;-144.30;67.91;85487.88;5091505;28;20203;-58
2023/10/05 02:56:49;;;;;;;23.80;10.73;;;;;;;-144.30;68.59;85466.00;5091396;28;20195;-58
2023/10/05 02:59:19;;;;;;;17.90;10.13;;;;;;;-144.30;68.88;85519.69;5091796;28;20199;-58
2023/10/05 03:01:47;;;;;;;17.93;10.43;;;;;;;-144.30;69.34;85515.72;5091405;28;20742;-58
2023/10/05 03:04:17;;;;;;;22.40;10.30;;;;;;;-144.30;69.37;85487.88;5091427;28;20361;-59
2023/10/05 03:06:47;;;;;;;18.80;10.27;;;;;;;-144.30;69.39;85503.78;5091312;28;20195;-59
2023/10/05 03:09:14;;;;;;;23.10;11.38;;;;;;;-144.30;68.95;85525.66;5090508;28;20471;-57
2023/10/05 03:11:46;;;;;;;24.33;9.97;;;;;;;-144.30;68.36;85503.78;5091402;28;20223;-56
2023/10/05 03:14:16;;;;;;;19.43;10.30;;;;;;;-144.30;68.30;85515.72;5091281;28;20199;-57
2023/10/05 03:16:47;;;;;;;21.97;10.77;;;;;;;-144.30;68.38;85509.75;5091149;28;20203;-57
2023/10/05 03:19:20;;;;;;;21.97;10.37;;;;;;;-144.30;68.61;85513.72;5091155;28;20700;-57
2023/10/05 03:21:49;;;;;;;18.87;9.23;;;;;;;-144.30;68.67;85499.81;5091495;28;20192;-57
2023/10/05 03:24:16;;;;;;;22.07;9.67;;;;;;;-144.30;68.37;85515.72;5091265;28;20583;-57
2023/10/05 03:26:43;;;;;;;21.67;11.27;;;;;;;-144.30;68.30;85511.75;5090950;28;20746;-58
2023/10/05 03:29:11;;;;;;;16.87;10.00;;;;;;;-144.30;68.41;85501.78;5095032;28;20222;-57
2023/10/05 03:31:43;;;;;;;20.30;10.37;;;;;;;-144.30;68.86;85529.63;5102286;28;20616;-57
2023/10/05 03:34:10;;;;;;;19.80;10.50;;;;;;;-144.30;68.96;85519.69;5091689;28;20676;-57
2023/10/05 03:36:39;;;;;;;25.80;10.47;;;;;;;-144.30;69.08;85563.41;5090942;28;20577;-58
2023/10/05 03:39:07;;;;;;;19.57;11.27;;;;;;;-144.30;69.00;85557.47;5089884;28;20282;-56
2023/10/05 03:41:38;;;;;;;23.90;11.10;;;;;;;-144.30;68.89;85547.53;5090843;28;20221;-57
2023/10/05 03:44:07;;;;;;;21.57;10.77;;;;;;;-144.30;69.26;85593.25;5091023;28;20561;-57
2023/10/05 03:46:35;;;;;;;21.03;10.70;;;;;;;-144.30;69.17;86056.50;5091519;28;20557;-57
2023/10/05 03:49:02;;;;;;;23.57;11.03;;;;;;;-144.30;69.37;85555.47;5091291;28;20219;-58
2023/10/05 03:51:29;;;;;;;20.80;10.93;;;;;;;-144.30;69.58;85571.38;5090954;28;20199;-57
2023/10/05 03:53:58;;;;;;;21.27;10.23;;;;;;;-144.30;69.74;85547.53;5091105;28;20676;-58
2023/10/05 03:56:27;;;;;;;20.27;10.33;;;;;;;-144.30;70.02;85539.56;5101504;28;20198;-59
2023/10/05 03:58:54;;;;;;;25.63;10.70;;;;;;;-144.30;70.64;85603.19;5111036;28;20198;-59
2023/10/05 04:01:23;;;;;;;22.03;12.03;;;;;;;-144.30;71.31;85625.06;5111146;28;20190;-59
2023/10/05 04:03:50;;;;;;;22.00;12.17;;;;;;;-144.30;71.83;85535.59;5110080;28;20556;-59
2023/10/05 04:06:18;;;;;;;21.67;11.07;;;;;;;-144.30;71.67;85613.13;5109808;28;20286;-60
2023/10/05 04:08:49;;;;;;;28.03;11.10;;;;;;;-144.30;72.32;85587.28;5109372;28;20294;-58
2023/10/05 04:11:21;;;;;;;23.47;11.60;;;;;;;-144.30;72.03;85607.16;5110405;28;20195;-59
2023/10/05 04:13:49;;;;;;;18.83;11.40;;;;;;;-144.30;71.60;85585.28;5110672;28;20631;-60
2023/10/05 04:16:24;;;;;;;30.57;12.03;;;;;;;-144.30;71.08;85428.25;5110384;28;20201;-59
2023/10/05 04:18:53;;;;;;;26.83;11.57;;;;;;;-144.30;70.92;85563.41;5110497;28;20198;-58
2023/10/05 04:21:22;;;;;;;19.13;11.80;;;;;;;-144.30;69.72;85573.38;5110670;28;20628;-58
2023/10/05 04:23:50;;;;;;;21.80;11.70;;;;;;;-144.30;69.44;85640.97;5104640;28;20195;-57
2023/10/05 04:26:22;;;;;;;26.33;11.27;;;;;;;-144.30;69.45;85603.19;5098870;28;20238;-58
2023/10/05 04:28:54;;;;;;;19.10;12.03;;;;;;;-144.30;69.98;85571.38;5090036;28;20273;-58
2023/10/05 04:31:25;;;;;;;28.40;11.47;;;;;;;-144.30;69.80;85450.09;5090283;28;20199;-58
2023/10/05 04:33:52;;;;;;;23.27;10.90;;;;;;;-144.30;69.95;85607.16;5090173;28;20199;-57
2023/10/05 04:36:22;;;;;;;18.80;10.57;;;;;;;-144.30;69.48;85591.25;5089950;28;20648;-58
2023/10/05 04:38:49;;;;;;;25.30;11.57;;;;;;;-144.30;69.34;85595.22;5089940;28;20744;-58
2023/10/05 04:41:19;;;;;;;23.30;11.13;;;;;;;-144.30;68.61;85565.41;5102093;28;20703;-58
2023/10/05 04:43:50;;;;;;;24.43;11.10;;;;;;;-144.30;68.37;85718.50;5110270;28;20749;-57
2023/10/05 04:46:19;;;;;;;33.93;12.23;;;;;;;-144.30;68.30;85547.53;5105233;28;20651;-58
2023/10/05 04:48:55;;;;;;;25.87;10.90;;;;;;;-144.30;68.08;85579.31;5097160;28;20699;-57
2023/10/05 04:51:24;;;;;;;15.67;10.67;;;;;;;-144.30;67.43;85563.41;5110131;28;20222;-57
2023/10/05 04:53:58;;;;;;;18.33;10.93;;;;;;;-144.30;67.57;85515.72;5106223;28;20209;-58
2023/10/05 04:56:34;;;;;;;17.63;9.90;;;;;;;-144.30;67.14;85561.44;5103337;28;20214;-59
2023/10/05 05:07:21;;;;;;;19.50;12.40;;;;;;;-144.30;65.61;85485.88;5109579;28;20191;-58
2023/10/05 05:09:50;;;;;;;22.43;10.60;;;;;;;-144.30;65.16;85475.94;5112920;28;20711;-59
2023/10/05 05:12:17;;;;;;;29.97;12.70;;;;;;;-144.30;65.11;85499.81;5114395;28;20286;-58
2023/10/05 05:14:49;;;;;;;22.33;11.67;;;;;;;-144.30;65.19;85483.91;5113994;28;21050;-59
2023/10/05 05:17:18;;;;;;;24.03;12.03;;;;;;;-144.30;65.15;85464.03;5113748;28;20256;-59
2023/10/05 05:19:46;;;;;;;31.93;11.60;;;;;;;-144.30;64.16;85462.03;5113604;28;20230;-59
2023/10/05 05:22:13;;;;;;;31.27;11.73;;;;;;;-144.30;62.44;85420.28;5113731;27;20247;-58
2023/10/05 05:24:43;;;;;;;26.73;11.50;;;;;;;-144.30;61.06;85380.53;5113595;28;20281;-58
2023/10/05 05:27:21;;;;;;;24.87;10.83;;;;;;;-144.30;60.42;85778.13;5111251;28;20235;-59
2023/10/05 05:29:51;;;;;;;22.00;10.70;;;;;;;-144.30;59.41;85328.84;5093163;28;20219;-58
2023/10/05 05:32:19;;;;;;;23.10;11.07;;;;;;;-144.30;58.09;85287.09;5093271;28;20640;-58
2023/10/05 05:34:49;;;;;;;26.97;11.57;;;;;;;-144.30;56.73;85197.66;5093022;28;20203;-61
2023/10/05 05:37:26;;;;;;;31.03;10.93;;;;;;;-144.30;55.21;85193.66;5093102;28;20199;-59
2023/10/05 05:39:53;;;;;;;17.03;9.90;;;;;;;-144.30;52.97;85056.50;5093150;28;20285;-58
2023/10/05 05:42:20;;;;;;;19.98;10.25;;;;;;;-144.30;50.21;84931.28;5091221;28;20254;-58
2023/10/05 05:44:52;;;;;;;19.48;10.00;;;;;;;-144.30;48.10;84895.50;5095053;28;20289;-59
2023/10/05 05:47:19;;;;;;;15.35;9.75;;;;;;;-144.30;46.55;84816.00;5109631;28;20199;-59
2023/10/05 05:49:47;;;;;;;20.27;10.75;;;;;;;-144.30;46.89;84875.63;5111918;28;20786;-58
2023/10/05 05:52:15;;;;;;;17.70;11.00;;;;;;;-144.30;47.31;84875.63;5114623;28;20195;-59
2023/10/05 05:54:46;;;;;;;25.40;11.20;;;;;;;-144.30;45.54;84752.41;5113170;28;20198;-59
2023/10/05 05:57:17;;;;;;;27.08;10.10;;;;;;;-144.30;44.00;84662.97;5113118;28;20194;-58
2023/10/05 05:59:46;;;;;;;17.23;9.93;;;;;;;-144.30;42.95;84476.13;5112755;28;20191;-58
2023/10/05 06:02:14;;;;;;;17.55;9.88;;;;;;;-144.30;43.37;84684.81;5112004;28;20186;-58
2023/10/05 06:04:42;;;;;;;18.33;10.43;;;;;;;-144.30;44.36;84696.75;5112860;28;20310;-58
2023/10/05 06:07:13;;;;;;;26.83;11.50;;;;;;;-144.30;45.55;84804.06;5112830;28;20201;-57
2023/10/05 06:09:42;;;;;;;25.42;11.20;;;;;;;-144.30;46.74;84839.84;5112716;28;20648;-57
2023/10/05 06:12:10;;;;;;;26.30;11.95;;;;;;;-144.30;47.60;84939.25;5112603;28;20302;-59
2023/10/05 06:14:37;;;;;;;21.83;10.20;;;;;;;-144.30;48.54;84947.19;5113057;28;20198;-59
2023/10/05 06:17:04;;;;;;;21.67;10.35;;;;;;;-144.30;48.47;84889.53;5112615;28;20195;-60
2023/10/05 06:19:33;;;;;;;31.58;12.10;;;;;;;-144.30;46.55;84760.34;5112654;28;20191;-59
2023/10/05 06:22:01;;;;;;;20.25;10.70;;;;;;;-144.30;44.18;84688.81;5112721;28;20630;-59
2023/10/05 06:24:28;;;;;;;23.17;10.38;;;;;;;-144.30;41.74;84521.84;5112762;28;20206;-60
2023/10/05 06:26:55;;;;;;;22.95;9.90;;;;;;;-144.30;40.37;84434.41;5112522;28;20245;-60
2023/10/05 06:29:22;;;;;;;23.63;11.57;;;;;;;-144.30;40.04;84362.84;5112380;28;20221;-60
2023/10/05 06:31:49;;;;;;;21.70;11.68;;;;;;;-144.30;39.37;84341.00;5112379;28;20202;-60
2023/10/05 06:34:16;;;;;;;25.52;11.25;;;;;;;-144.30;38.56;84231.69;5112362;28;20286;-58
2023/10/05 06:36:44;;;;;;;27.13;12.23;;;;;;;-144.30;37.81;84227.72;5112254;28;20190;-59
2023/10/05 06:39:14;;;;;;;29.55;11.73;;;;;;;-144.30;37.70;84156.19;5112168;28;20680;-59
2023/10/05 06:41:41;;;;;;;35.00;11.18;;;;;;;-144.30;36.92;84068.75;5112502;28;20190;-60
2023/10/05 06:44:10;;;;;;;26.23;11.13;;;;;;;-144.30;34.74;83802.47;5112614;28;20339;-60
2023/10/05 06:46:37;;;;;;;22.73;11.68;;;;;;;-144.30;32.94;83595.81;5112224;28;20224;-60
2023/10/05 06:49:05;;;;;;;18.92;11.07;;;;;;;-144.30;31.69;83464.69;5111926;28;20222;-62
2023/10/05 06:51:32;;;;;;;30.20;13.18;;;;;;;-144.30;31.49;83337.53;5112200;28;20198;-61
2023/10/05 06:54:01;;;;;;;21.23;11.40;;;;;;;-144.30;30.07;83093.19;5112024;28;20714;-61
2023/10/05 06:56:28;;;;;;;18.85;11.90;;;;;;;-144.30;29.13;82892.53;5112349;28;20601;-61
2023/10/05 06:58:55;;;;;;;23.80;11.82;;;;;;;-144.30;28.06;82660.13;5111905;28;20190;-59
2023/10/05 07:01:22;;;;;;;27.67;12.30;;;;;;;-144.30;27.54;82668.06;5111975;28;20194;-62
2023/10/05 07:03:52;;;;;;;36.30;12.95;;;;;;;-144.30;28.15;82779.31;5112025;28;20221;-60
2023/10/05 07:06:22;;;;;;;20.52;11.40;;;;;;;-144.30;28.87;82944.19;5111786;28;20616;-62
2023/10/05 07:08:49;;;;;;;23.23;13.23;;;;;;;-144.30;29.58;83238.19;5111963;28;20218;-61
2023/10/05 07:11:17;;;;;;;19.27;10.98;;;;;;;-144.30;31.01;83452.78;5111857;27;20198;-61
2023/10/05 07:13:46;;;;;;;29.92;17.98;;;;;;;-144.30;32.06;83579.94;5111681;28;20199;-62
2023/10/05 07:16:13;;;;;;;26.60;12.90;;;;;;;-144.30;33.60;83790.56;5111683;28;20194;-60
2023/10/05 07:18:40;;;;;;;18.83;11.85;;;;;;;-144.30;35.18;84593.41;5111667;28;20198;-59
2023/10/05 07:21:09;;;;;;;24.48;12.43;;;;;;;-144.30;37.47;84203.88;5111485;28;20195;-60
2023/10/05 07:23:36;;;;;;;27.42;13.40;;;;;;;-144.30;38.48;84265.47;5112259;28;20201;-59
2023/10/05 07:26:04;;;;;;;31.00;13.32;;;;;;;-144.30;39.22;84239.66;5112196;28;20225;-59
2023/10/05 07:28:34;;;;;;;35.40;15.70;;;;;;;-144.30;39.70;84313.19;5112217;28;20202;-59
2023/10/05 07:31:02;;;;;;;38.35;18.55;;;;;;;-144.30;39.92;84319.13;5111912;28;20285;-59
2023/10/05 07:33:29;;;;;;;28.25;16.80;;;;;;;-144.30;40.75;84342.97;5111177;28;20590;-58
2023/10/05 07:35:57;;;;;;;29.17;10.70;;;;;;;-144.30;40.94;84364.84;5111414;28;20707;-58
2023/10/05 07:38:27;;;;;;;26.90;13.25;;;;;;;-144.30;40.96;84342.97;5111653;28;20206;-59
2023/10/05 07:40:54;;;;;;;28.45;17.05;;;;;;;-144.30;41.00;84315.16;5111365;28;20205;-58
2023/10/05 07:43:21;;;;;;;25.85;11.48;;;;;;;-144.30;41.07;84317.16;5111133;28;20190;-59
2023/10/05 07:45:49;;;;;;;28.33;14.48;;;;;;;-144.30;41.46;84329.06;5111002;28;20571;-60
2023/10/05 07:48:17;;;;;;;28.67;11.55;;;;;;;-144.30;41.62;84329.06;5111486;28;20584;-59
2023/10/05 07:50:44;;;;;;;28.30;14.55;;;;;;;-144.30;41.93;84279.38;5110838;28;20218;-60
2023/10/05 07:53:11;;;;;;;17.23;10.65;;;;;;;-144.30;41.93;84311.19;5111018;28;20289;-60
2023/10/05 07:55:38;;;;;;;22.83;10.55;;;;;;;-144.30;42.03;84299.25;5110923;28;20199;-62
2023/10/05 07:58:05;;;;;;;26.23;11.43;;;;;;;-144.30;42.44;84283.38;5105600;28;20218;-60
2023/10/05 08:00:33;;;;;;;20.38;10.63;;;;;;;-144.30;42.39;84297.28;5100314;28;20198;-62
2023/10/05 08:03:01;;;;;;;18.40;9.50;;;;;;;-144.30;42.33;84269.47;5108405;28;20202;-60
2023/10/05 08:05:28;;;;;;;25.98;10.48;;;;;;;-144.30;42.29;84259.50;5097794;28;20207;-61
2023/10/05 08:07:56;;;;;;;20.92;11.32;;;;;;;-144.30;42.33;84281.38;5102374;28;20201;-60
2023/10/05 08:10:23;;;;;;;18.92;9.90;;;;;;;-144.30;42.72;84289.31;5103486;28;20226;-60
2023/10/05 08:12:50;;;;;;;25.65;13.90;;;;;;;-144.30;42.58;84251.56;5102061;28;20210;-60
2023/10/05 08:15:18;;;;;;;15.90;10.43;;;;;;;-144.30;42.73;84261.50;5089959;28;20198;-58
2023/10/05 08:17:45;;;;;;;20.27;10.43;;;;;;;-144.30;42.49;84229.72;5090043;28;20195;-59
2023/10/05 08:20:15;;;;;;;19.85;12.40;;;;;;;-144.30;42.55;84251.56;5090218;28;20735;-60
2023/10/05 08:22:42;;;;;;;16.60;10.65;;;;;;;-144.30;42.44;84219.78;5090184;28;20206;-60
2023/10/05 08:25:11;;;;;;;26.92;11.38;;;;;;;-144.30;42.65;84195.94;5089503;28;20210;-58
2023/10/05 08:27:39;;;;;;;23.95;10.80;;;;;;;-144.30;42.51;84219.78;5102627;28;20252;-59
2023/10/05 08:30:08;;;;;;;17.38;9.98;;;;;;;-144.30;42.70;84203.88;5097480;28;20215;-59
2023/10/05 08:32:37;;;;;;;22.27;10.57;;;;;;;-144.30;43.02;84184.00;5110320;28;20195;-59
2023/10/05 08:35:13;;;;;;;17.27;10.57;;;;;;;-144.30;43.07;84201.88;5097430;28;20275;-59
2023/10/05 08:37:48;;;;;;;22.38;11.48;;;;;;;-144.30;43.07;84203.88;5097995;28;20213;-58
2023/10/05 08:40:37;;;;;;;17.48;11.80;;;;;;;-144.30;43.09;84233.69;5098702;28;20195;-59
2023/10/05 08:43:09;;;;;;;18.67;9.40;;;;;;;-144.30;43.19;84243.63;5099337;28;20281;-59
2023/10/05 08:45:51;;;;;;;19.08;8.85;;;;;;;-144.30;43.36;84235.66;5110429;28;20207;-60
2023/10/05 08:48:22;;;;;;;13.27;9.50;;;;;;;-144.30;43.32;84259.50;5110171;28;20259;-60
2023/10/05 08:50:54;;;;;;;15.75;10.90;;;;;;;-144.30;43.38;84259.50;5110016;28;20258;-60
2023/10/05 08:53:23;;;;;;;14.70;9.20;;;;;;;-144.30;43.62;84263.50;5110233;28;20195;-58
2023/10/05 08:55:52;;;;;;;19.55;12.15;;;;;;;-144.30;43.15;84281.38;5109736;28;20195;-58
2023/10/05 08:58:22;;;;;;;26.42;10.05;;;;;;;-144.30;42.38;84255.53;5109984;28;20220;-59
2023/10/05 09:00:49;;;;;;;16.67;8.73;;;;;;;-144.30;42.34;84259.50;5109938;28;20194;-58
2023/10/05 09:03:35;;;;;;;21.88;11.00;;;;;;;-144.30;42.32;84273.44;5110057;28;20736;-59
2023/10/05 09:06:20;;;;;;;21.77;9.00;;;;;;;-144.30;42.29;84265.47;5110267;28;20199;-59
2023/10/05 09:08:53;;;;;;;23.27;8.80;;;;;;;-144.30;42.40;84223.75;5109155;28;20209;-59
2023/10/05 09:11:31;;;;;;;17.35;11.23;;;;;;;-144.30;42.22;84257.53;5109915;28;20691;-61
2023/10/05 09:14:12;;;;;;;26.52;17.15;;;;;;;-144.30;42.18;84180.03;5110119;28;20660;-58
2023/10/05 09:16:42;;;;;;;15.50;10.00;;;;;;;-144.30;41.89;84197.91;5110218;28;20206;-60
2023/10/05 09:19:12;;;;;;;16.20;9.23;;;;;;;-144.30;41.94;84247.59;5110349;28;20198;-60
2023/10/05 09:21:50;;;;;;;18.90;10.18;;;;;;;-144.30;41.54;84237.66;5109879;28;20623;-61
2023/10/05 09:24:24;;;;;;;22.95;9.43;;;;;;;-144.30;41.08;84199.91;5110017;28;20194;-61
2023/10/05 09:26:56;;;;;;;13.25;8.75;;;;;;;-144.30;40.62;83987.28;5109606;28;20321;-61
2023/10/05 09:29:27;;;;;;;22.02;10.10;;;;;;;-144.30;40.79;84187.97;5109730;28;20218;-61
2023/10/05 09:31:56;;;;;;;14.27;9.32;;;;;;;-144.30;40.89;84191.94;5109804;28;20256;-60
2023/10/05 09:34:38;;;;;;;14.70;9.55;;;;;;;-144.30;41.01;84189.97;5109761;28;20217;-59
2023/10/05 09:37:07;;;;;;;14.00;9.45;;;;;;;-144.30;40.78;84187.97;5110069;28;20198;-61
2023/10/05 09:39:42;;;;;;;14.05;9.02;;;;;;;-144.30;40.67;84172.06;5113531;28;20244;-62
2023/10/05 09:42:22;;;;;;;15.30;9.05;;;;;;;-144.30;40.56;84184.00;5113937;28;20252;-61
2023/10/05 09:44:54;;;;;;;11.75;8.20;;;;;;;-144.30;40.20;84150.22;5113200;28;20202;-61
2023/10/05 09:47:25;;;;;;;12.93;8.55;;;;;;;-144.30;40.09;84144.25;5113545;28;20688;-61
2023/10/05 09:49:56;;;;;;;15.88;8.75;;;;;;;-144.30;40.28;84092.59;5113238;28;20218;-61
2023/10/05 09:52:34;;;;;;;14.52;8.63;;;;;;;-144.30;40.19;84122.41;5113304;28;20199;-61
2023/10/05 09:55:05;;;;;;;14.73;8.80;;;;;;;-144.30;40.29;84074.72;5113205;28;20190;-62
2023/10/05 09:57:40;;;;;;;11.63;8.90;;;;;;;-144.30;39.27;84076.69;5113182;27;20608;-62
2023/10/05 10:00:12;;;;;;;19.05;10.30;;;;;;;-144.30;38.76;84064.78;5113424;28;20631;-61
2023/10/05 10:02:42;;;;;;;17.02;11.43;;;;;;;-144.30;38.94;84092.59;5113056;28;20191;-62
2023/10/05 10:05:26;;;;;;;16.98;10.80;;;;;;;-144.30;38.90;84058.81;5113032;28;20198;-61
2023/10/05 10:07:55;;;;;;;14.30;9.73;;;;;;;-144.30;38.56;84088.63;5112976;28;20592;-62
2023/10/05 10:10:25;;;;;;;16.52;9.18;;;;;;;-144.30;38.22;84032.97;5113137;28;20222;-61
2023/10/05 10:12:53;;;;;;;13.35;8.25;;;;;;;-144.30;38.29;84027.00;5113034;28;20194;-60
2023/10/05 10:15:28;;;;;;;17.67;8.50;;;;;;;-144.30;37.89;84017.06;5113215;28;20619;-61
2023/10/05 10:18:13;;;;;;;9.38;7.60;;;;;;;-144.30;37.93;83973.38;5112620;28;20194;-60
2023/10/05 10:20:45;;;;;;;12.15;7.93;;;;;;;-144.30;37.16;84027.00;5113045;27;20190;-61
2023/10/05 10:23:19;;;;;;;10.38;7.22;;;;;;;-144.30;37.30;83810.41;5113013;28;20639;-60
2023/10/05 10:25:49;;;;;;;16.27;7.60;;;;;;;-144.30;37.50;84011.13;5112517;28;20243;-62
2023/10/05 10:28:20;;;;;;;12.77;7.45;;;;;;;-144.30;37.57;84048.88;5112739;28;20201;-60
2023/10/05 10:30:48;;;;;;;11.25;7.80;;;;;;;-144.30;37.47;84019.06;5112520;28;20730;-61
2023/10/05 10:33:35;;;;;;;7.53;6.38;;;;;;;-144.30;37.26;84025.03;5112639;28;20219;-61
2023/10/05 10:36:04;;;;;;;11.40;6.78;;;;;;;-144.30;36.73;84009.13;5112367;28;20199;-61
2023/10/05 10:38:31;;;;;;;11.23;6.22;;;;;;;-144.30;36.34;83993.22;5112410;28;20614;-62
2023/10/05 10:41:09;;;;;;;11.35;6.65;;;;;;;-144.30;36.59;84291.31;5112145;28;20230;-62
2023/10/05 10:43:37;;;;;;;10.82;6.72;;;;;;;-144.30;36.57;83933.63;5112426;28;20672;-62
2023/10/05 10:46:13;;;;;;;18.80;7.25;;;;;;;-144.30;36.35;83848.19;5112195;28;20199;-61
2023/10/05 10:48:53;;;;;;;13.48;6.72;;;;;;;-144.30;36.27;83975.34;5111921;28;20198;-62
2023/10/05 10:51:22;;;;;;;9.98;7.03;;;;;;;-144.30;36.00;83985.28;5102414;28;20280;-60
2023/10/05 10:53:56;;;;;;;10.77;6.25;;;;;;;-144.30;35.89;83999.19;5091647;28;20560;-62
2023/10/05 10:56:34;;;;;;;16.33;6.57;;;;;;;-144.30;36.03;84001.19;5091892;28;20572;-62
2023/10/05 10:59:12;;;;;;;11.60;6.88;;;;;;;-144.30;36.22;83991.25;5091670;28;20249;-62
2023/10/05 11:01:41;;;;;;;11.20;6.00;;;;;;;-144.30;36.07;84007.16;5091584;28;20202;-62
2023/10/05 11:04:23;;;;;;;10.82;6.80;;;;;;;-144.30;35.87;83969.38;5091277;28;20203;-61
2023/10/05 11:06:56;;;;;;;9.35;6.20;;;;;;;-144.30;35.87;83965.41;5091406;28;20203;-60
2023/10/05 11:09:35;;;;;;;9.80;7.10;;;;;;;-144.30;35.80;83961.44;5091587;28;20195;-61
2023/10/05 11:12:11;;;;;;;8.65;6.82;;;;;;;-144.30;36.02;83985.28;5091256;28;20195;-61
2023/10/05 11:14:46;;;;;;;8.18;6.63;;;;;;;-144.30;36.21;83941.56;5091230;28;20209;-62
2023/10/05 11:17:28;;;;;;;15.30;6.97;;;;;;;-144.30;36.04;83975.34;5091526;28;20704;-61
2023/10/05 11:19:55;;;;;;;13.60;6.97;;;;;;;-144.30;36.00;84015.09;5091458;28;20285;-61
2023/10/05 11:22:29;;;;;;;14.30;7.50;;;;;;;-144.30;36.19;83959.44;5091260;28;20684;-62
2023/10/05 11:25:15;;;;;;;9.35;6.75;;;;;;;-144.30;35.60;83957.47;5090399;28;20209;-60
2023/10/05 11:27:55;;;;;;;10.32;6.97;;;;;;;-144.30;35.78;83961.44;5098281;28;20683;-61
2023/10/05 11:30:24;;;;;;;14.95;7.05;;;;;;;-144.30;36.01;83961.44;5098370;28;20214;-60